Bangor (BGR/KBGR)

Map

Destinations

Information

Location
Bangor, Maine
Local Time
20:15 / 8:15 pm
GMT Time
00:15 / 12:15 am
Gates
Unassigned
No FAA reported delays
METAR KBGR 222353Z 31023G34KT 10SM SCT085 M08/M19 A3001 RMK AO2 PK WND 31039/2335 SLP166 4/006 60000 T10831189 11067 21083 53041
TAF KBGR 222320Z 2300/2324 32027G39KT P6SM SCT080 FM230400 33015G27KT P6SM FEW050 SCT250 FM232300 32007KT P6SM SKC
  • No charts available